sensor_id;sensor_type;location;lat;lon;timestamp;P1;durP1;ratioP1;P2;durP2;ratioP2
17866;SDS011;9059;49.934;8.650;2024-03-22T00:03:09;8.75;;;4.47;;
17866;SDS011;9059;49.934;8.650;2024-03-22T00:13:12;8.00;;;4.05;;
17866;SDS011;9059;49.934;8.650;2024-03-22T00:23:13;9.38;;;4.20;;
17866;SDS011;9059;49.934;8.650;2024-03-22T00:33:17;8.82;;;4.07;;
17866;SDS011;9059;49.934;8.650;2024-03-22T00:43:19;10.70;;;3.97;;
17866;SDS011;9059;49.934;8.650;2024-03-22T00:53:22;8.65;;;4.00;;
17866;SDS011;9059;49.934;8.650;2024-03-22T01:03:24;12.20;;;4.03;;
17866;SDS011;9059;49.934;8.650;2024-03-22T01:13:27;8.93;;;4.20;;
17866;SDS011;9059;49.934;8.650;2024-03-22T01:23:29;9.55;;;4.00;;
17866;SDS011;9059;49.934;8.650;2024-03-22T01:33:32;9.30;;;3.63;;
17866;SDS011;9059;49.934;8.650;2024-03-22T01:43:33;8.82;;;4.07;;
17866;SDS011;9059;49.934;8.650;2024-03-22T01:53:37;6.90;;;3.08;;
17866;SDS011;9059;49.934;8.650;2024-03-22T02:03:39;7.65;;;3.78;;
17866;SDS011;9059;49.934;8.650;2024-03-22T02:13:42;7.25;;;3.58;;
17866;SDS011;9059;49.934;8.650;2024-03-22T02:23:45;5.50;;;2.83;;
17866;SDS011;9059;49.934;8.650;2024-03-22T02:33:47;13.80;;;3.90;;
17866;SDS011;9059;49.934;8.650;2024-03-22T02:43:50;6.20;;;2.97;;
17866;SDS011;9059;49.934;8.650;2024-03-22T02:53:52;7.30;;;2.88;;
17866;SDS011;9059;49.934;8.650;2024-03-22T03:03:55;7.88;;;3.13;;
17866;SDS011;9059;49.934;8.650;2024-03-22T03:13:57;7.65;;;3.80;;
17866;SDS011;9059;49.934;8.650;2024-03-22T03:24:00;10.98;;;4.38;;
17866;SDS011;9059;49.934;8.650;2024-03-22T03:34:02;9.15;;;3.97;;
17866;SDS011;9059;49.934;8.650;2024-03-22T03:44:05;12.55;;;4.55;;
17866;SDS011;9059;49.934;8.650;2024-03-22T03:54:07;8.65;;;3.35;;
17866;SDS011;9059;49.934;8.650;2024-03-22T04:04:10;8.87;;;3.50;;
17866;SDS011;9059;49.934;8.650;2024-03-22T04:14:12;9.05;;;4.13;;
17866;SDS011;9059;49.934;8.650;2024-03-22T04:24:15;9.60;;;4.75;;
17866;SDS011;9059;49.934;8.650;2024-03-22T04:34:17;13.73;;;3.65;;
17866;SDS011;9059;49.934;8.650;2024-03-22T04:44:20;9.38;;;3.75;;
17866;SDS011;9059;49.934;8.650;2024-03-22T04:54:22;8.25;;;3.85;;
17866;SDS011;9059;49.934;8.650;2024-03-22T05:04:26;9.53;;;3.60;;
17866;SDS011;9059;49.934;8.650;2024-03-22T05:14:28;8.43;;;3.55;;
17866;SDS011;9059;49.934;8.650;2024-03-22T05:24:31;10.82;;;3.92;;
17866;SDS011;9059;49.934;8.650;2024-03-22T05:34:33;17.15;;;6.90;;
17866;SDS011;9059;49.934;8.650;2024-03-22T05:44:37;13.30;;;4.78;;
17866;SDS011;9059;49.934;8.650;2024-03-22T05:54:38;9.90;;;4.53;;
17866;SDS011;9059;49.934;8.650;2024-03-22T06:04:42;15.00;;;5.05;;
17866;SDS011;9059;49.934;8.650;2024-03-22T06:14:44;13.30;;;5.97;;
17866;SDS011;9059;49.934;8.650;2024-03-22T06:24:48;13.75;;;6.00;;
17866;SDS011;9059;49.934;8.650;2024-03-22T06:34:50;17.63;;;6.15;;
17866;SDS011;9059;49.934;8.650;2024-03-22T06:44:53;17.27;;;5.32;;
17866;SDS011;9059;49.934;8.650;2024-03-22T06:54:55;16.75;;;5.32;;
17866;SDS011;9059;49.934;8.650;2024-03-22T07:04:58;11.32;;;4.45;;
17866;SDS011;9059;49.934;8.650;2024-03-22T07:15:00;8.25;;;4.20;;
17866;SDS011;9059;49.934;8.650;2024-03-22T07:25:04;11.55;;;4.40;;
17866;SDS011;9059;49.934;8.650;2024-03-22T07:35:06;9.13;;;4.22;;
17866;SDS011;9059;49.934;8.650;2024-03-22T07:45:10;10.48;;;4.63;;
17866;SDS011;9059;49.934;8.650;2024-03-22T07:55:11;11.70;;;4.25;;
17866;SDS011;9059;49.934;8.650;2024-03-22T08:05:15;14.38;;;5.18;;
17866;SDS011;9059;49.934;8.650;2024-03-22T08:15:17;11.18;;;4.53;;
17866;SDS011;9059;49.934;8.650;2024-03-22T08:25:20;14.13;;;5.40;;
17866;SDS011;9059;49.934;8.650;2024-03-22T08:35:22;14.18;;;4.03;;
17866;SDS011;9059;49.934;8.650;2024-03-22T08:45:25;7.88;;;4.13;;
17866;SDS011;9059;49.934;8.650;2024-03-22T08:55:30;6.47;;;2.85;;
17866;SDS011;9059;49.934;8.650;2024-03-22T09:05:34;8.68;;;3.38;;
17866;SDS011;9059;49.934;8.650;2024-03-22T09:15:36;9.20;;;3.15;;
17866;SDS011;9059;49.934;8.650;2024-03-22T09:25:39;6.18;;;3.15;;
17866;SDS011;9059;49.934;8.650;2024-03-22T09:35:41;7.43;;;3.05;;
17866;SDS011;9059;49.934;8.650;2024-03-22T09:45:45;5.53;;;3.20;;
17866;SDS011;9059;49.934;8.650;2024-03-22T09:55:51;7.35;;;3.78;;
17866;SDS011;9059;49.934;8.650;2024-03-22T10:05:59;9.40;;;4.00;;
17866;SDS011;9059;49.934;8.650;2024-03-22T10:16:02;8.55;;;3.92;;
17866;SDS011;9059;49.934;8.650;2024-03-22T10:26:05;7.32;;;4.07;;
17866;SDS011;9059;49.934;8.650;2024-03-22T10:36:07;6.65;;;2.88;;
17866;SDS011;9059;49.934;8.650;2024-03-22T10:46:12;9.90;;;2.80;;
17866;SDS011;9059;49.934;8.650;2024-03-22T10:56:14;7.55;;;3.85;;
17866;SDS011;9059;49.934;8.650;2024-03-22T11:06:19;9.27;;;3.85;;
17866;SDS011;9059;49.934;8.650;2024-03-22T11:16:22;12.43;;;3.70;;
17866;SDS011;9059;49.934;8.650;2024-03-22T11:26:25;8.60;;;3.63;;
17866;SDS011;9059;49.934;8.650;2024-03-22T11:36:27;10.80;;;4.60;;
17866;SDS011;9059;49.934;8.650;2024-03-22T11:46:31;9.13;;;3.65;;
17866;SDS011;9059;49.934;8.650;2024-03-22T11:56:34;8.52;;;4.05;;
17866;SDS011;9059;49.934;8.650;2024-03-22T12:06:38;7.00;;;3.50;;
17866;SDS011;9059;49.934;8.650;2024-03-22T12:16:42;9.48;;;3.78;;
17866;SDS011;9059;49.934;8.650;2024-03-22T12:26:46;9.50;;;3.97;;
17866;SDS011;9059;49.934;8.650;2024-03-22T12:36:48;12.52;;;4.20;;
17866;SDS011;9059;49.934;8.650;2024-03-22T12:46:51;10.77;;;4.40;;
17866;SDS011;9059;49.934;8.650;2024-03-22T12:56:54;13.17;;;5.37;;
17866;SDS011;9059;49.934;8.650;2024-03-22T13:06:58;9.35;;;4.35;;
17866;SDS011;9059;49.934;8.650;2024-03-22T13:16:59;10.68;;;4.78;;
17866;SDS011;9059;49.934;8.650;2024-03-22T13:27:03;8.95;;;4.43;;
17866;SDS011;9059;49.934;8.650;2024-03-22T13:37:05;11.18;;;5.68;;
17866;SDS011;9059;49.934;8.650;2024-03-22T13:47:09;9.88;;;5.45;;
17866;SDS011;9059;49.934;8.650;2024-03-22T13:57:10;18.45;;;5.70;;
17866;SDS011;9059;49.934;8.650;2024-03-22T14:07:14;16.08;;;6.47;;
17866;SDS011;9059;49.934;8.650;2024-03-22T14:17:15;11.60;;;5.85;;
17866;SDS011;9059;49.934;8.650;2024-03-22T14:27:19;17.33;;;7.32;;
17866;SDS011;9059;49.934;8.650;2024-03-22T14:37:21;14.18;;;6.43;;
17866;SDS011;9059;49.934;8.650;2024-03-22T14:47:24;17.35;;;6.78;;
17866;SDS011;9059;49.934;8.650;2024-03-22T14:57:26;25.38;;;6.60;;
17866;SDS011;9059;49.934;8.650;2024-03-22T15:07:29;18.65;;;7.00;;
17866;SDS011;9059;49.934;8.650;2024-03-22T15:17:31;10.82;;;6.07;;
17866;SDS011;9059;49.934;8.650;2024-03-22T15:27:35;13.57;;;6.57;;
17866;SDS011;9059;49.934;8.650;2024-03-22T15:37:37;13.57;;;6.47;;
17866;SDS011;9059;49.934;8.650;2024-03-22T15:47:41;14.82;;;6.10;;
17866;SDS011;9059;49.934;8.650;2024-03-22T15:57:43;13.73;;;5.95;;
17866;SDS011;9059;49.934;8.650;2024-03-22T16:07:47;10.82;;;5.80;;
17866;SDS011;9059;49.934;8.650;2024-03-22T16:17:49;11.45;;;6.72;;
17866;SDS011;9059;49.934;8.650;2024-03-22T16:27:53;16.48;;;6.55;;
17866;SDS011;9059;49.934;8.650;2024-03-22T16:37:56;10.60;;;5.28;;
17866;SDS011;9059;49.934;8.650;2024-03-22T16:47:59;10.82;;;6.18;;
17866;SDS011;9059;49.934;8.650;2024-03-22T16:58:02;12.65;;;6.32;;
17866;SDS011;9059;49.934;8.650;2024-03-22T17:08:07;13.77;;;5.90;;
17866;SDS011;9059;49.934;8.650;2024-03-22T17:18:09;10.65;;;5.70;;
17866;SDS011;9059;49.934;8.650;2024-03-22T17:28:13;9.43;;;5.55;;
17866;SDS011;9059;49.934;8.650;2024-03-22T17:38:15;11.88;;;4.75;;
17866;SDS011;9059;49.934;8.650;2024-03-22T17:48:18;17.42;;;5.53;;
17866;SDS011;9059;49.934;8.650;2024-03-22T17:58:20;12.05;;;5.38;;
17866;SDS011;9059;49.934;8.650;2024-03-22T18:08:24;15.40;;;6.50;;
17866;SDS011;9059;49.934;8.650;2024-03-22T18:18:26;15.88;;;7.45;;
17866;SDS011;9059;49.934;8.650;2024-03-22T18:28:29;13.43;;;5.35;;
17866;SDS011;9059;49.934;8.650;2024-03-22T18:38:31;20.83;;;5.93;;
17866;SDS011;9059;49.934;8.650;2024-03-22T18:48:34;15.45;;;5.82;;
17866;SDS011;9059;49.934;8.650;2024-03-22T18:58:38;11.77;;;5.55;;
17866;SDS011;9059;49.934;8.650;2024-03-22T19:08:41;13.43;;;5.85;;
17866;SDS011;9059;49.934;8.650;2024-03-22T19:18:43;12.90;;;6.22;;
17866;SDS011;9059;49.934;8.650;2024-03-22T19:28:46;13.52;;;5.75;;
17866;SDS011;9059;49.934;8.650;2024-03-22T19:38:48;13.98;;;5.47;;
17866;SDS011;9059;49.934;8.650;2024-03-22T19:48:51;12.73;;;5.65;;
17866;SDS011;9059;49.934;8.650;2024-03-22T19:58:53;20.42;;;6.15;;
17866;SDS011;9059;49.934;8.650;2024-03-22T20:08:57;13.70;;;6.07;;
17866;SDS011;9059;49.934;8.650;2024-03-22T20:18:58;12.57;;;6.20;;
17866;SDS011;9059;49.934;8.650;2024-03-22T20:29:02;19.58;;;7.47;;
